Time;durP1;ratioP1;P1;durP2;ratioP2;P2;SDS_P1;SDS_P2;PMS_P1;PMS_P2;Temp;Humidity;BMP_temperature;BMP_pressure;BME280_temperature;BME280_humidity;BME280_pressure;Samples;Min_cycle;Max_cycle;Signal;HPM_P1;HPM_P2
2021/10/28 00:14:09;;;;;;;6.07;5.57;;;4.80;99.90;;;;;;4936318;29;20048;-80
2021/10/28 00:16:36;;;;;;;6.45;5.70;;;4.80;99.90;;;;;;4919865;29;20056;-79
2021/10/28 00:19:03;;;;;;;5.97;5.22;;;4.80;99.90;;;;;;4924221;29;20032;-80
2021/10/28 00:21:33;;;;;;;11.40;7.07;;;4.70;99.90;;;;;;4939423;29;20615;-80
2021/10/28 00:24:03;;;;;;;6.85;6.07;;;4.60;99.90;;;;;;4927240;29;20042;-80
2021/10/28 00:26:34;;;;;;;7.10;6.40;;;4.60;99.90;;;;;;4951440;29;20028;-80
2021/10/28 00:29:03;;;;;;;7.78;6.45;;;4.50;99.90;;;;;;4937782;29;20040;-80
2021/10/28 00:31:31;;;;;;;7.03;6.32;;;4.50;99.90;;;;;;4920740;29;20038;-79
2021/10/28 00:33:59;;;;;;;8.50;6.50;;;4.50;99.90;;;;;;4938251;29;20040;-79
2021/10/28 00:36:26;;;;;;;7.75;7.05;;;4.40;99.90;;;;;;4937251;29;20043;-79
2021/10/28 00:38:53;;;;;;;7.70;6.90;;;4.40;99.90;;;;;;4937159;29;20035;-79
2021/10/28 00:41:22;;;;;;;6.88;6.35;;;4.40;99.90;;;;;;4938211;29;20500;-79
2021/10/28 00:43:51;;;;;;;7.15;6.47;;;4.50;99.90;;;;;;4937638;29;20040;-79
2021/10/28 00:46:18;;;;;;;10.88;7.38;;;4.40;99.90;;;;;;4919674;29;20070;-79
2021/10/28 00:48:46;;;;;;;9.15;7.60;;;4.30;99.90;;;;;;4920322;29;20040;-79
2021/10/28 00:51:13;;;;;;;7.95;7.15;;;4.30;99.90;;;;;;4935910;29;20059;-80
2021/10/28 00:53:41;;;;;;;9.13;7.22;;;4.40;99.90;;;;;;4937220;29;20051;-80
2021/10/28 00:56:07;;;;;;;12.02;8.85;;;4.30;99.90;;;;;;4920149;29;20054;-79
2021/10/28 00:58:34;;;;;;;15.60;9.00;;;4.20;99.90;;;;;;4919889;29;20036;-79
2021/10/28 01:01:03;;;;;;;10.77;9.38;;;4.30;99.90;;;;;;4927400;29;20023;-79
2021/10/28 01:03:30;;;;;;;24.40;9.00;;;4.20;99.90;;;;;;4948342;29;20047;-79
2021/10/28 01:05:56;;;;;;;13.55;7.53;;;4.10;99.90;;;;;;4935850;29;20070;-79
2021/10/28 01:08:25;;;;;;;8.55;7.75;;;4.10;99.90;;;;;;4936351;29;20039;-79
2021/10/28 01:10:52;;;;;;;9.75;8.85;;;4.00;99.90;;;;;;4919729;29;20068;-79
2021/10/28 01:13:20;;;;;;;9.68;8.73;;;4.10;99.90;;;;;;4934652;29;20055;-79
2021/10/28 01:15:48;;;;;;;9.02;8.13;;;4.10;99.90;;;;;;4919768;29;20469;-79
2021/10/28 01:18:16;;;;;;;8.27;7.43;;;4.20;99.90;;;;;;4936397;29;20496;-79
2021/10/28 01:20:47;;;;;;;12.10;7.88;;;4.10;99.90;;;;;;4936589;29;20032;-79
2021/10/28 01:23:15;;;;;;;;;;;4.00;99.90;;;;;;4936259;29;20043;-79
2021/10/28 01:26:00;;;;;;;8.45;7.22;;;4.00;99.90;;;;;;4936508;29;19915;-79
2021/10/28 01:28:29;;;;;;;7.72;7.07;;;4.00;99.90;;;;;;4934761;29;20048;-79
2021/10/28 01:30:58;;;;;;;9.88;7.30;;;3.90;99.90;;;;;;4936284;29;20035;-79
2021/10/28 01:33:26;;;;;;;8.57;7.72;;;3.90;99.90;;;;;;4936142;29;20031;-79
2021/10/28 01:35:53;;;;;;;9.32;7.72;;;3.90;99.90;;;;;;4932523;29;20055;-78
2021/10/28 01:38:20;;;;;;;10.43;9.48;;;3.90;99.90;;;;;;4939116;29;20027;-79
2021/10/28 01:41:01;;;;;;;10.02;8.38;;;3.90;99.90;;;;;;4952675;29;20035;-79
2021/10/28 01:43:29;;;;;;;10.00;9.00;;;4.00;99.90;;;;;;4935926;29;20061;-79
2021/10/28 01:45:56;;;;;;;9.93;8.93;;;4.10;99.90;;;;;;4919104;29;20035;-79
2021/10/28 01:48:23;;;;;;;8.63;7.72;;;4.00;99.90;;;;;;4948626;29;20035;-79
2021/10/28 01:50:50;;;;;;;10.38;8.70;;;4.10;99.90;;;;;;4953934;29;20031;-79
2021/10/28 01:53:16;;;;;;;8.30;7.60;;;4.10;99.90;;;;;;4934970;29;20043;-79
2021/10/28 01:55:43;;;;;;;10.57;9.38;;;4.20;99.90;;;;;;4942524;29;20043;-80
2021/10/28 01:58:13;;;;;;;10.25;9.25;;;4.20;99.90;;;;;;4936069;29;20039;-80
2021/10/28 02:00:41;;;;;;;10.10;9.20;;;4.20;99.90;;;;;;4946896;29;20038;-80
2021/10/28 02:03:08;;;;;;;11.02;9.95;;;4.20;99.90;;;;;;4944592;29;20135;-79
2021/10/28 02:05:35;;;;;;;10.35;9.55;;;4.10;99.90;;;;;;4942859;29;20036;-79
2021/10/28 02:08:02;;;;;;;30.67;12.25;;;4.10;99.90;;;;;;4936634;29;20054;-79
2021/10/28 02:10:29;;;;;;;26.75;11.85;;;4.00;99.90;;;;;;4933698;29;20039;-79
2021/10/28 02:12:56;;;;;;;16.30;10.82;;;3.90;99.90;;;;;;4965378;28;20047;-79
2021/10/28 02:15:24;;;;;;;16.70;11.50;;;3.90;99.90;;;;;;4954129;28;20477;-79
2021/10/28 02:17:50;;;;;;;11.35;10.23;;;3.90;99.90;;;;;;4969807;28;20035;-79
2021/10/28 02:20:18;;;;;;;30.67;13.50;;;4.00;99.90;;;;;;4954178;29;20039;-79
2021/10/28 02:22:46;;;;;;;13.25;11.93;;;4.00;99.90;;;;;;4954633;28;20032;-79
2021/10/28 02:25:13;;;;;;;14.55;11.13;;;3.80;99.90;;;;;;4953852;28;20044;-79
2021/10/28 02:27:48;;;;;;;14.15;10.82;;;3.90;99.90;;;;;;4965569;28;20035;-78
2021/10/28 02:30:16;;;;;;;12.30;11.20;;;3.90;99.90;;;;;;4968910;28;20039;-78
2021/10/28 02:32:45;;;;;;;11.55;10.35;;;4.00;99.90;;;;;;4954758;28;20737;-78
2021/10/28 02:35:12;;;;;;;11.95;10.82;;;3.90;99.90;;;;;;4954640;28;20393;-79
2021/10/28 02:37:38;;;;;;;12.77;11.52;;;3.90;99.90;;;;;;4952394;28;20098;-78
2021/10/28 02:40:05;;;;;;;11.48;10.40;;;3.90;99.90;;;;;;4954617;28;20031;-79
2021/10/28 02:42:32;;;;;;;12.15;11.05;;;3.80;99.90;;;;;;4953595;28;20388;-79
2021/10/28 02:44:58;;;;;;;12.27;11.18;;;3.90;99.90;;;;;;4954590;28;20051;-79
2021/10/28 02:47:25;;;;;;;13.00;11.75;;;3.90;99.90;;;;;;4953927;28;20027;-79
2021/10/28 02:49:51;;;;;;;13.23;12.05;;;4.00;99.90;;;;;;4954129;28;20042;-79
2021/10/28 02:52:17;;;;;;;14.35;11.23;;;4.00;99.90;;;;;;4953419;28;20389;-79
2021/10/28 02:54:44;;;;;;;16.10;12.63;;;3.90;99.90;;;;;;4982011;28;20042;-78
2021/10/28 02:57:10;;;;;;;18.70;11.50;;;3.80;99.90;;;;;;4961272;28;20031;-78
2021/10/28 02:59:36;;;;;;;16.67;13.10;;;3.70;99.90;;;;;;4968906;28;20023;-78
2021/10/28 03:02:03;;;;;;;15.68;12.40;;;3.80;99.90;;;;;;4935976;29;20043;-79
2021/10/28 03:04:29;;;;;;;20.85;12.02;;;3.70;99.90;;;;;;4952274;28;20039;-79
2021/10/28 03:06:56;;;;;;;24.38;11.05;;;3.70;99.90;;;;;;4954924;28;20042;-78
2021/10/28 03:09:25;;;;;;;19.35;11.45;;;3.70;99.90;;;;;;4954451;28;20027;-79
2021/10/28 03:11:55;;;;;;;13.18;11.73;;;3.70;99.90;;;;;;4951539;28;20054;-79
2021/10/28 03:14:24;;;;;;;11.48;10.40;;;3.80;99.90;;;;;;4953485;28;20035;-79
2021/10/28 03:16:59;;;;;;;12.38;11.25;;;3.80;99.90;;;;;;4953768;28;20043;-79
2021/10/28 03:19:45;;;;;;;13.10;11.90;;;3.90;99.90;;;;;;4951927;28;20035;-79
2021/10/28 03:27:37;;;;;;;15.00;10.63;;;3.80;99.90;;;;;;4951714;28;20039;-79
2021/10/28 03:30:04;;;;;;;13.70;12.50;;;3.80;99.90;;;;;;4969029;28;20050;-78
2021/10/28 03:32:31;;;;;;;17.02;11.88;;;3.80;99.90;;;;;;4951631;28;20039;-79
2021/10/28 03:34:57;;;;;;;14.15;12.85;;;3.90;99.90;;;;;;4960334;28;20498;-78
2021/10/28 03:37:29;;;;;;;14.15;12.40;;;3.90;99.90;;;;;;4962351;28;20039;-78
2021/10/28 03:45:26;;;;;;;12.48;11.38;;;3.80;99.90;;;;;;4985769;28;20395;-79
2021/10/28 03:58:41;;;;;;;15.07;13.57;;;3.80;99.90;;;;;;4958072;28;20035;-79
2021/10/28 04:01:43;;;;;;;19.77;13.98;;;3.80;99.90;;;;;;4959020;28;20119;-79
2021/10/28 04:30:13;;;;;;;16.02;14.75;;;3.20;99.90;;;;;;4939048;29;20036;-80
2021/10/28 04:32:40;;;;;;;16.55;15.15;;;3.20;99.90;;;;;;4937092;29;20477;-80
2021/10/28 04:35:08;;;;;;;15.45;14.15;;;3.20;99.90;;;;;;4937487;29;20067;-80
2021/10/28 04:37:36;;;;;;;14.48;13.10;;;3.20;99.90;;;;;;4934822;29;20040;-80
2021/10/28 04:40:03;;;;;;;15.43;13.93;;;3.10;99.90;;;;;;4937347;29;20063;-81
2021/10/28 04:42:30;;;;;;;23.70;19.98;;;3.20;99.90;;;;;;4934856;29;20047;-80
2021/10/28 04:44:56;;;;;;;18.55;16.95;;;3.00;99.90;;;;;;4937265;29;20457;-80
2021/10/28 04:47:23;;;;;;;20.00;17.98;;;3.00;99.90;;;;;;4918805;29;20039;-80
2021/10/28 04:49:49;;;;;;;18.55;15.32;;;3.00;99.90;;;;;;4938500;29;20366;-81
2021/10/28 04:52:16;;;;;;;21.98;17.58;;;3.00;99.90;;;;;;4945908;29;20638;-79
2021/10/28 04:54:42;;;;;;;26.17;17.25;;;3.00;99.90;;;;;;4936864;29;20031;-80
2021/10/28 04:57:08;;;;;;;20.38;16.40;;;3.10;99.90;;;;;;4937135;29;20036;-80
2021/10/28 04:59:35;;;;;;;20.58;15.35;;;3.10;99.90;;;;;;4936819;29;20286;-81
2021/10/28 05:02:01;;;;;;;20.10;15.90;;;3.10;99.90;;;;;;4946081;29;20046;-80
2021/10/28 05:04:27;;;;;;;21.13;19.00;;;3.00;99.90;;;;;;4936608;29;20035;-80
2021/10/28 05:06:53;;;;;;;28.00;22.35;;;3.10;99.90;;;;;;4938117;29;20031;-80
2021/10/28 05:09:29;;;;;;;42.00;22.92;;;3.20;99.90;;;;;;4937095;29;20039;-80
2021/10/28 05:11:56;;;;;;;36.78;22.42;;;3.20;99.90;;;;;;4936321;29;20051;-80
2021/10/28 05:14:23;;;;;;;41.92;17.85;;;3.20;99.90;;;;;;4935750;29;20438;-81
2021/10/28 05:16:58;;;;;;;18.63;16.38;;;3.10;99.90;;;;;;4918120;29;20044;-80
2021/10/28 05:19:28;;;;;;;26.00;15.95;;;3.10;99.90;;;;;;4935439;29;20032;-80
2021/10/28 05:21:54;;;;;;;21.98;16.17;;;2.90;99.90;;;;;;4934903;29;20062;-80
2021/10/28 05:24:20;;;;;;;16.75;15.13;;;2.80;99.90;;;;;;4918685;29;20043;-79
2021/10/28 05:26:47;;;;;;;30.13;15.50;;;2.80;99.90;;;;;;4935683;29;20392;-80
2021/10/28 05:29:13;;;;;;;32.97;16.80;;;2.70;99.90;;;;;;4935165;29;20039;-80
2021/10/28 05:31:39;;;;;;;24.00;16.02;;;2.70;99.90;;;;;;4935022;29;20031;-80
2021/10/28 05:34:05;;;;;;;29.92;16.80;;;2.60;99.90;;;;;;4918167;29;20035;-79
2021/10/28 05:36:32;;;;;;;29.90;17.52;;;2.70;99.90;;;;;;4935164;29;20473;-80
2021/10/28 05:38:58;;;;;;;18.60;16.42;;;2.70;99.90;;;;;;4918719;29;20393;-82
2021/10/28 05:41:24;;;;;;;24.75;21.73;;;2.70;99.90;;;;;;4933365;29;20051;-79
2021/10/28 05:43:51;;;;;;;38.65;19.83;;;2.60;99.90;;;;;;4935785;29;20047;-80
2021/10/28 05:46:17;;;;;;;28.08;17.25;;;2.50;99.90;;;;;;4945039;29;20472;-79
2021/10/28 05:48:43;;;;;;;21.83;16.88;;;2.50;99.90;;;;;;4928235;29;20043;-79
2021/10/28 05:51:10;;;;;;;15.65;13.68;;;2.50;99.90;;;;;;4948975;29;20042;-79
2021/10/28 05:53:38;;;;;;;15.05;13.55;;;2.50;99.90;;;;;;4935398;29;20062;-79
2021/10/28 05:56:04;;;;;;;40.15;17.98;;;2.50;99.90;;;;;;4935946;29;20035;-79
2021/10/28 05:58:30;;;;;;;19.27;16.95;;;2.50;99.90;;;;;;4925672;29;20466;-78
2021/10/28 06:01:01;;;;;;;43.55;21.38;;;2.50;99.90;;;;;;4934949;29;20039;-79
2021/10/28 06:03:28;;;;;;;29.85;22.40;;;2.40;99.90;;;;;;4934063;29;20043;-78
2021/10/28 06:05:55;;;;;;;25.27;22.75;;;2.40;99.90;;;;;;4949624;29;20044;-79
2021/10/28 06:08:21;;;;;;;32.95;27.23;;;2.50;99.90;;;;;;4939070;29;20034;-78
2021/10/28 06:10:47;;;;;;;37.40;27.00;;;2.60;99.90;;;;;;4896633;29;1115601;-78
2021/10/28 06:13:13;;;;;;;56.38;26.98;;;2.70;99.90;;;;;;4935555;29;20039;-80
2021/10/28 06:15:40;;;;;;;30.05;22.85;;;2.70;99.90;;;;;;4917706;29;20043;-76
2021/10/28 06:18:34;;;;;;;24.98;20.02;;;2.70;99.90;;;;;;4935525;29;20043;-76
2021/10/28 06:20:58;;;;;;;34.53;18.95;;;2.60;99.90;;;;;;4935819;29;20043;-76
2021/10/28 06:23:25;;;;;;;28.42;25.30;;;2.40;99.90;;;;;;4935194;29;20054;-76
2021/10/28 06:25:51;;;;;;;36.63;23.73;;;2.40;99.90;;;;;;4936468;29;20042;-76
2021/10/28 06:28:17;;;;;;;41.83;23.75;;;2.40;99.90;;;;;;4946213;29;20054;-76
2021/10/28 06:30:43;;;;;;;34.45;25.02;;;2.50;99.90;;;;;;4935749;29;20040;-76
2021/10/28 06:33:14;;;;;;;38.75;31.13;;;2.70;99.90;;;;;;4935404;29;20036;-76
2021/10/28 06:35:42;;;;;;;42.22;34.70;;;2.80;99.90;;;;;;4939795;29;20035;-76
2021/10/28 06:38:09;;;;;;;32.63;29.25;;;3.00;99.90;;;;;;4940484;29;20040;-76
2021/10/28 06:40:38;;;;;;;44.45;30.77;;;3.00;99.90;;;;;;4949488;29;20047;-76
2021/10/28 06:43:11;;;;;;;52.22;28.13;;;3.10;99.90;;;;;;4939802;29;20051;-76
2021/10/28 06:45:37;;;;;;;41.67;26.80;;;3.20;99.90;;;;;;4934796;29;20401;-76
2021/10/28 06:48:05;;;;;;;51.90;26.70;;;3.20;99.90;;;;;;4935604;29;20023;-76
2021/10/28 06:50:46;;;;;;;33.05;28.77;;;3.20;99.90;;;;;;4934986;29;20039;-76
2021/10/28 06:55:57;;;;;;;36.97;26.98;;;3.20;99.90;;;;;;4935265;29;20039;-76
2021/10/28 07:03:53;;;;;;;40.03;26.27;;;3.40;99.90;;;;;;4950510;29;20043;-76
2021/10/28 07:06:22;;;;;;;35.13;27.65;;;3.50;99.90;;;;;;4936830;29;20036;-77
2021/10/28 07:09:06;;;;;;;32.67;23.25;;;3.60;99.90;;;;;;4935330;29;20370;-76
2021/10/28 07:11:35;;;;;;;27.30;22.30;;;3.60;99.90;;;;;;4934219;29;20052;-76
2021/10/28 07:14:05;;;;;;;21.98;19.70;;;3.70;99.90;;;;;;4935254;29;20496;-76
2021/10/28 07:19:17;;;;;;;24.15;19.65;;;3.70;99.90;;;;;;4940306;29;20039;-76
2021/10/28 07:32:31;;;;;;;23.27;20.33;;;3.70;99.90;;;;;;4936352;29;20488;-76
2021/10/28 08:05:24;;;;;;;131.15;104.47;;;6.00;99.90;;;;;;4933853;29;20051;-77
2021/10/28 08:15:59;;;;;;;88.93;79.65;;;6.80;99.90;;;;;;4934315;29;20044;-77
2021/10/28 08:29:16;;;;;;;58.65;52.53;;;7.20;99.90;;;;;;4943422;29;20393;-77
2021/10/28 08:31:42;;;;;;;57.65;51.30;;;7.20;99.90;;;;;;4947891;29;20032;-77
2021/10/28 08:34:08;;;;;;;54.78;49.05;;;7.30;99.90;;;;;;4937737;29;20445;-77
2021/10/28 08:36:39;;;;;;;52.15;46.78;;;7.30;99.90;;;;;;4919798;29;20043;-77
2021/10/28 08:39:07;;;;;;;51.83;46.33;;;7.30;99.90;;;;;;4937724;29;20031;-77
2021/10/28 08:41:35;;;;;;;49.05;43.88;;;7.30;99.90;;;;;;4937338;29;20365;-77
2021/10/28 08:44:02;;;;;;;48.17;40.85;;;7.40;99.90;;;;;;4935805;29;20059;-77
2021/10/28 08:46:29;;;;;;;39.95;36.28;;;7.40;99.90;;;;;;4952775;29;20477;-77
2021/10/28 08:49:03;;;;;;;48.13;38.35;;;7.50;99.90;;;;;;4940419;29;20039;-77
2021/10/28 08:51:45;;;;;;;39.90;34.50;;;7.50;99.90;;;;;;4937142;29;20035;-77
2021/10/28 09:24:55;;;;;;;31.30;27.88;;;7.90;99.90;;;;;;4936246;29;20039;-77
2021/10/28 09:27:25;;;;;;;43.88;31.52;;;8.00;99.90;;;;;;4936701;29;20040;-77
2021/10/28 09:32:39;;;;;;;48.70;40.55;;;8.10;99.90;;;;;;4936191;29;20481;-77
2021/10/28 09:43:55;;;;;;;35.97;29.33;;;8.10;99.90;;;;;;4935966;29;20047;-77
2021/10/28 09:46:37;;;;;;;34.80;27.48;;;8.10;99.90;;;;;;4936053;29;20036;-77
2021/10/28 09:57:47;;;;;;;36.30;30.33;;;8.30;99.90;;;;;;4931415;29;20047;-77
2021/10/28 09:57:58;;;;;;;30.95;27.60;;;8.50;99.90;;;;;;4933684;29;20051;-77
2021/10/28 10:00:38;;;;;;;36.58;29.10;;;8.50;99.90;;;;;;4935625;29;20316;-77
2021/10/28 10:03:09;;;;;;;36.53;30.13;;;8.40;99.90;;;;;;4935817;29;20477;-77
2021/10/28 10:05:38;;;;;;;34.50;30.23;;;8.40;99.90;;;;;;4936106;29;20039;-77
2021/10/28 10:08:07;;;;;;;40.35;32.95;;;8.50;99.90;;;;;;4935943;29;20038;-77
2021/10/28 10:10:36;;;;;;;42.30;31.67;;;8.50;99.90;;;;;;4918141;29;20044;-78
2021/10/28 10:13:03;;;;;;;40.55;32.58;;;8.60;99.90;;;;;;4936077;29;20048;-77
2021/10/28 10:15:29;;;;;;;36.92;33.17;;;8.60;99.90;;;;;;4935677;29;20058;-77
2021/10/28 10:17:59;;;;;;;33.60;29.70;;;8.60;99.90;;;;;;4935777;29;20032;-78
2021/10/28 10:20:38;;;;;;;37.22;30.45;;;8.70;99.90;;;;;;4943669;29;20058;-78
2021/10/28 11:26:37;;;;;;;38.05;34.05;;;9.40;99.90;;;;;;4934954;29;20031;-78
2021/10/28 11:32:30;;;;;;;39.95;32.47;;;9.40;99.90;;;;;;4934406;29;20062;-78
2021/10/28 12:17:48;;;;;;;56.13;49.58;;;9.90;99.90;;;;;;4937895;29;20039;-77
2021/10/28 12:45:59;;;;;;;46.10;37.17;;;9.60;99.90;;;;;;4945292;29;20055;-77
2021/10/28 12:57:05;;;;;;;40.88;36.55;;;10.10;99.90;;;;;;4937755;29;20055;-78
2021/10/28 13:02:42;;;;;;;39.45;35.30;;;10.50;99.90;;;;;;4938131;29;20039;-78
2021/10/28 13:38:11;;;;;;;40.35;31.80;;;11.00;99.90;;;;;;4948009;28;20043;-77
2021/10/28 13:49:07;;;;;;;32.85;29.35;;;11.30;98.00;;;;;;4940131;29;20027;-76
2021/10/28 14:16:39;;;;;;;37.47;30.85;;;11.30;98.40;;;;;;4935317;29;20485;-79
2021/10/28 15:02:46;;;;;;;;;;;11.10;97.80;;;;;;4946850;29;20032;-76
2021/10/28 15:30:14;;;;;;;50.10;39.85;;;10.40;99.90;;;;;;4973525;28;20034;-76
2021/10/28 15:35:14;;;;;;;46.20;41.25;;;10.20;99.90;;;;;;4957742;28;20511;-76
2021/10/28 15:57:23;;;;;;;46.97;42.40;;;9.30;99.90;;;;;;4957223;28;20050;-78
2021/10/28 16:24:00;;;;;;;50.85;45.65;;;8.40;99.90;;;;;;4938171;29;20036;-77
2021/10/28 16:26:33;;;;;;;56.03;48.83;;;8.30;99.90;;;;;;4937795;29;20478;-77
2021/10/28 16:29:02;;;;;;;54.70;48.80;;;8.30;99.90;;;;;;4936157;29;20042;-77
2021/10/28 16:31:28;;;;;;;54.42;48.40;;;8.20;99.90;;;;;;4944427;29;20031;-77
2021/10/28 16:33:55;;;;;;;54.90;49.13;;;8.00;99.90;;;;;;4937289;29;20058;-78
2021/10/28 16:36:25;;;;;;;55.35;49.33;;;8.00;99.90;;;;;;4937867;29;20055;-77
2021/10/28 16:38:52;;;;;;;56.88;51.28;;;8.00;99.90;;;;;;4945243;29;20050;-77
2021/10/28 16:41:19;;;;;;;55.45;49.75;;;7.90;99.90;;;;;;4955475;29;20456;-78
2021/10/28 16:43:46;;;;;;;54.80;48.92;;;7.90;99.90;;;;;;4942764;29;20040;-78
2021/10/28 16:46:12;;;;;;;59.13;51.38;;;8.00;99.90;;;;;;4955177;28;20050;-78
2021/10/28 16:48:40;;;;;;;54.08;48.20;;;8.00;99.90;;;;;;4964276;28;20754;-78
2021/10/28 16:51:06;;;;;;;53.15;47.35;;;8.00;99.90;;;;;;4947769;28;20050;-79
2021/10/28 16:53:33;;;;;;;54.05;45.88;;;7.90;99.90;;;;;;4961817;28;20028;-78
2021/10/28 16:56:00;;;;;;;57.63;51.00;;;7.80;99.90;;;;;;4962022;28;20043;-78
2021/10/28 16:58:27;;;;;;;53.60;46.17;;;7.90;99.90;;;;;;4934000;28;20050;-78
2021/10/28 17:00:56;;;;;;;50.08;45.05;;;7.90;99.90;;;;;;4962388;28;20027;-77
2021/10/28 17:03:22;;;;;;;45.67;41.28;;;7.80;99.90;;;;;;4956118;28;20022;-78
2021/10/28 17:05:49;;;;;;;46.47;41.60;;;7.70;99.90;;;;;;4957031;28;20475;-78
2021/10/28 17:08:15;;;;;;;59.13;45.45;;;7.40;99.90;;;;;;4944223;28;20027;-78
2021/10/28 17:10:43;;;;;;;51.30;41.65;;;7.20;99.90;;;;;;4959509;28;20045;-78
2021/10/28 17:13:09;;;;;;;50.63;45.60;;;7.10;99.90;;;;;;4964245;28;20035;-78
2021/10/28 17:15:35;;;;;;;51.05;45.88;;;7.30;99.90;;;;;;4962206;28;20036;-78
2021/10/28 17:18:02;;;;;;;50.03;43.28;;;7.40;99.90;;;;;;4961436;28;20110;-77
2021/10/28 17:20:34;;;;;;;49.55;44.17;;;7.40;99.90;;;;;;4963611;28;20487;-76
2021/10/28 17:23:01;;;;;;;61.15;43.83;;;7.30;99.90;;;;;;4962215;28;20050;-77
2021/10/28 17:25:29;;;;;;;50.05;44.45;;;7.10;99.90;;;;;;4960696;28;20035;-77
2021/10/28 17:27:55;;;;;;;52.20;46.90;;;7.20;99.90;;;;;;4941477;28;20381;-76
2021/10/28 17:30:22;;;;;;;50.55;45.15;;;7.20;99.90;;;;;;4959911;28;20035;-77
2021/10/28 17:32:48;;;;;;;52.72;47.30;;;7.20;99.90;;;;;;4959331;28;20031;-77
2021/10/28 17:35:15;;;;;;;47.97;43.15;;;7.10;99.90;;;;;;4945781;28;20401;-77
2021/10/28 17:37:41;;;;;;;51.85;46.47;;;7.10;99.90;;;;;;4957884;28;20046;-76
2021/10/28 17:40:08;;;;;;;45.45;40.90;;;7.10;99.90;;;;;;4962814;28;20035;-76
2021/10/28 17:42:35;;;;;;;45.15;40.30;;;7.00;99.90;;;;;;4963505;28;20046;-77
2021/10/28 17:45:04;;;;;;;47.60;42.42;;;6.70;99.90;;;;;;4944239;28;20042;-76
2021/10/28 17:47:30;;;;;;;47.53;41.72;;;6.60;99.90;;;;;;4951940;28;20035;-76
2021/10/28 17:49:59;;;;;;;44.25;39.90;;;6.70;99.90;;;;;;4936685;29;20059;-77
2021/10/28 17:52:26;;;;;;;48.85;43.17;;;6.70;99.90;;;;;;4936493;29;20027;-76
2021/10/28 17:54:52;;;;;;;43.78;39.28;;;6.60;99.90;;;;;;4934720;29;20043;-77
2021/10/28 17:57:19;;;;;;;46.28;41.47;;;6.50;99.90;;;;;;4936484;29;20035;-76
2021/10/28 17:59:45;;;;;;;46.30;39.42;;;6.30;99.90;;;;;;4935359;29;20036;-77
2021/10/28 18:02:12;;;;;;;48.53;42.10;;;6.20;99.90;;;;;;4935474;29;20038;-76
2021/10/28 18:04:43;;;;;;;47.20;42.17;;;6.30;99.90;;;;;;4935486;29;20047;-74
2021/10/28 18:07:09;;;;;;;46.28;41.03;;;6.30;99.90;;;;;;4939153;29;20035;-76
2021/10/28 18:09:37;;;;;;;45.33;40.47;;;6.30;99.90;;;;;;4947825;29;20031;-76
2021/10/28 18:12:05;;;;;;;46.17;41.47;;;6.30;99.90;;;;;;4938146;28;20516;-76
2021/10/28 18:14:35;;;;;;;52.00;42.38;;;6.20;99.90;;;;;;4953987;28;20048;-76
2021/10/28 18:17:01;;;;;;;46.83;42.05;;;6.00;99.90;;;;;;4954468;29;20046;-75
2021/10/28 18:19:27;;;;;;;50.85;44.45;;;5.90;99.90;;;;;;4946463;29;20027;-76
2021/10/28 18:21:55;;;;;;;50.17;45.35;;;6.00;99.90;;;;;;4935649;29;20046;-76
2021/10/28 18:24:22;;;;;;;57.58;48.53;;;6.00;99.90;;;;;;4952239;29;20042;-77
2021/10/28 18:26:49;;;;;;;54.13;48.00;;;5.90;99.90;;;;;;4935357;29;20044;-77
2021/10/28 18:29:16;;;;;;;50.47;44.45;;;5.80;99.90;;;;;;4936113;29;20377;-76
2021/10/28 18:31:44;;;;;;;54.13;45.75;;;5.60;99.90;;;;;;4935283;29;20032;-77
2021/10/28 18:34:11;;;;;;;51.80;45.35;;;5.50;99.90;;;;;;4926203;29;20043;-76
2021/10/28 18:36:38;;;;;;;57.65;49.47;;;5.50;99.90;;;;;;4937488;29;20051;-76
2021/10/28 18:39:08;;;;;;;61.47;54.42;;;5.60;99.90;;;;;;4941345;29;20062;-76
2021/10/28 18:41:34;;;;;;;75.38;60.28;;;5.70;99.90;;;;;;4937250;29;20028;-77
2021/10/28 18:44:01;;;;;;;75.85;62.83;;;5.90;99.90;;;;;;4938834;29;20046;-77
2021/10/28 18:46:33;;;;;;;68.25;58.97;;;6.10;99.90;;;;;;4952688;29;20039;-77
2021/10/28 18:49:02;;;;;;;117.38;62.88;;;6.10;99.90;;;;;;4934145;29;20028;-76
2021/10/28 18:51:30;;;;;;;85.85;65.63;;;6.10;99.90;;;;;;4935156;29;20039;-78
2021/10/28 18:53:56;;;;;;;87.50;69.50;;;6.10;99.90;;;;;;4947965;29;20028;-76
2021/10/28 18:56:23;;;;;;;149.48;75.53;;;6.30;99.90;;;;;;4935240;29;20048;-76
2021/10/28 18:58:49;;;;;;;247.88;78.07;;;6.40;99.90;;;;;;4935089;29;20393;-76
2021/10/28 19:01:19;;;;;;;89.95;70.22;;;6.30;99.90;;;;;;4936218;29;20036;-76
2021/10/28 19:03:45;;;;;;;214.73;80.53;;;6.30;99.90;;;;;;4946628;29;20465;-76
2021/10/28 19:06:14;;;;;;;184.45;81.80;;;6.30;99.90;;;;;;4934573;29;20051;-76
2021/10/28 19:08:43;;;;;;;269.58;94.88;;;6.30;99.90;;;;;;4951273;29;20387;-76
2021/10/28 19:11:10;;;;;;;213.00;85.05;;;6.30;99.90;;;;;;4945365;28;20409;-77
2021/10/28 19:13:40;;;;;;;179.98;78.65;;;6.20;99.90;;;;;;4932076;29;20039;-77
2021/10/28 19:16:08;;;;;;;294.92;89.93;;;6.10;99.90;;;;;;4944527;29;20038;-76
2021/10/28 19:18:35;;;;;;;242.27;80.18;;;6.10;99.90;;;;;;4932639;29;20390;-77
2021/10/28 19:21:02;;;;;;;91.30;74.10;;;6.10;99.90;;;;;;4936258;29;20034;-76
2021/10/28 19:23:28;;;;;;;261.08;84.95;;;6.10;99.90;;;;;;4936268;29;20043;-76
2021/10/28 19:25:55;;;;;;;144.20;73.30;;;6.20;99.90;;;;;;4937566;29;20054;-76
2021/10/28 19:28:25;;;;;;;103.82;73.22;;;6.20;99.90;;;;;;4934590;29;20043;-76
2021/10/28 19:30:57;;;;;;;233.05;83.65;;;6.10;99.90;;;;;;4933833;29;20489;-75
2021/10/28 19:36:04;;;;;;;282.17;85.38;;;6.00;99.90;;;;;;4933690;29;20054;-75
2021/10/28 19:46:39;;;;;;;177.43;81.60;;;5.90;99.90;;;;;;4934606;29;20051;-75
2021/10/28 19:49:10;;;;;;;125.40;78.70;;;5.90;99.90;;;;;;4950144;29;20465;-74
2021/10/28 19:51:39;;;;;;;135.68;84.00;;;5.90;99.90;;;;;;4952969;29;20035;-75
2021/10/28 19:54:09;;;;;;;88.30;78.95;;;6.00;99.90;;;;;;4954178;29;20039;-75
2021/10/28 19:56:35;;;;;;;218.88;93.45;;;6.00;99.90;;;;;;4951446;29;20131;-75
2021/10/28 19:59:02;;;;;;;92.47;82.10;;;6.10;99.90;;;;;;4947087;29;20389;-74
2021/10/28 20:20:19;;;;;;;203.43;94.53;;;6.30;99.90;;;;;;4949476;29;20035;-75
2021/10/28 20:22:47;;;;;;;251.77;100.65;;;6.30;99.90;;;;;;4937387;29;20343;-74
2021/10/28 20:25:17;;;;;;;297.50;108.50;;;6.40;99.90;;;;;;4937663;29;20405;-74
2021/10/28 20:27:47;;;;;;;268.23;103.28;;;6.40;99.90;;;;;;4937349;29;20418;-74
2021/10/28 20:30:14;;;;;;;179.07;96.70;;;6.40;99.90;;;;;;4942416;29;20035;-74
2021/10/28 20:32:40;;;;;;;327.85;118.68;;;6.50;99.90;;;;;;4941249;29;20028;-74
2021/10/28 20:35:12;;;;;;;289.73;109.68;;;6.50;99.90;;;;;;4937869;29;20389;-75
2021/10/28 20:37:40;;;;;;;224.43;93.70;;;6.60;99.90;;;;;;4937526;29;20044;-74
2021/10/28 20:40:08;;;;;;;195.45;100.53;;;6.60;99.90;;;;;;4936868;29;20039;-74
2021/10/28 20:42:38;;;;;;;281.33;109.55;;;6.60;99.90;;;;;;4949493;29;20039;-74
2021/10/28 20:45:08;;;;;;;202.50;96.93;;;6.70;99.90;;;;;;4937334;29;20047;-75
2021/10/28 20:47:35;;;;;;;307.95;112.65;;;6.70;99.90;;;;;;4937744;29;20385;-75
2021/10/28 20:50:02;;;;;;;237.55;101.82;;;6.70;99.90;;;;;;4937418;29;20399;-75
2021/10/28 20:52:30;;;;;;;205.57;97.32;;;6.70;99.90;;;;;;4937959;29;20036;-75
2021/10/28 20:54:56;;;;;;;127.05;99.10;;;6.70;99.90;;;;;;4936964;29;20485;-75
2021/10/28 20:57:23;;;;;;;177.65;95.85;;;6.80;99.90;;;;;;4937543;29;20036;-75
2021/10/28 20:59:53;;;;;;;170.27;100.93;;;6.80;99.90;;;;;;4946885;29;20046;-75
2021/10/28 21:02:19;;;;;;;217.52;103.05;;;6.80;99.90;;;;;;4942607;29;20067;-74
2021/10/28 21:04:45;;;;;;;134.10;97.88;;;6.90;99.90;;;;;;4936743;29;20040;-75
2021/10/28 21:07:12;;;;;;;181.18;104.75;;;6.90;99.90;;;;;;4935818;29;20066;-75
2021/10/28 21:09:38;;;;;;;251.07;112.07;;;7.00;99.90;;;;;;4936988;29;20028;-75
2021/10/28 21:12:04;;;;;;;158.57;101.28;;;7.00;99.90;;;;;;4937168;29;20047;-74
2021/10/28 21:14:31;;;;;;;188.27;97.30;;;7.00;99.90;;;;;;4942158;29;20040;-75
2021/10/28 21:16:57;;;;;;;263.83;114.60;;;7.00;99.90;;;;;;4947908;29;20362;-74
2021/10/28 21:19:26;;;;;;;169.63;102.65;;;7.00;99.90;;;;;;4937286;29;20036;-74
2021/10/28 21:21:53;;;;;;;183.10;101.72;;;7.00;99.90;;;;;;4936325;29;20385;-74
2021/10/28 21:24:19;;;;;;;261.52;111.63;;;7.00;99.90;;;;;;4936843;29;20107;-74
2021/10/28 21:26:45;;;;;;;205.85;104.72;;;7.00;99.90;;;;;;4936212;29;20044;-75
2021/10/28 21:29:12;;;;;;;281.63;117.45;;;7.10;99.90;;;;;;4936553;29;20027;-75
2021/10/28 21:31:38;;;;;;;174.35;98.38;;;7.00;99.90;;;;;;4936528;29;20035;-75
2021/10/28 21:34:04;;;;;;;244.93;107.80;;;7.00;99.90;;;;;;4937024;29;20034;-74
2021/10/28 21:36:31;;;;;;;258.95;101.82;;;7.00;99.90;;;;;;4936989;29;20042;-74
2021/10/28 21:38:57;;;;;;;160.93;93.60;;;7.00;99.90;;;;;;4935761;29;20044;-75
2021/10/28 21:41:24;;;;;;;287.00;112.53;;;6.90;99.90;;;;;;4936547;29;20028;-75